sensor_id;sensor_type;location;lat;lon;timestamp;pressure;altitude;pressure_sealevel;temperature;humidity
63954;BME280;50128;52.094;5.232;2023-02-28T00:02:47;101771.0;;;-6.42;94.38
63954;BME280;50128;52.094;5.232;2023-02-28T00:04:24;101773.0;;;-6.31;94.08
63954;BME280;50128;52.094;5.232;2023-02-28T00:06:01;101769.0;;;-6.36;94.11
63954;BME280;50128;52.094;5.232;2023-02-28T00:09:14;101770.0;;;-6.39;94.17
63954;BME280;50128;52.094;5.232;2023-02-28T00:10:50;101771.0;;;-6.22;93.64
63954;BME280;50128;52.094;5.232;2023-02-28T00:12:27;101768.0;;;-6.06;93.42
63954;BME280;50128;52.094;5.232;2023-02-28T00:15:39;101767.0;;;-6.0;93.62
63954;BME280;50128;52.094;5.232;2023-02-28T00:17:15;101774.0;;;-5.9;93.52
63954;BME280;50128;52.094;5.232;2023-02-28T00:18:51;101780.0;;;-5.78;93.49
63954;BME280;50128;52.094;5.232;2023-02-28T00:20:27;101777.0;;;-5.75;93.64
63954;BME280;50128;52.094;5.232;2023-02-28T00:23:39;101780.0;;;-5.61;92.98
63954;BME280;50128;52.094;5.232;2023-02-28T00:25:18;101781.0;;;-5.55;92.73
63954;BME280;50128;52.094;5.232;2023-02-28T00:26:55;101780.0;;;-5.53;92.74
63954;BME280;50128;52.094;5.232;2023-02-28T00:30:11;101776.0;;;-5.58;93.28
63954;BME280;50128;52.094;5.232;2023-02-28T00:31:51;101777.0;;;-5.56;93.0
63954;BME280;50128;52.094;5.232;2023-02-28T00:33:28;101776.0;;;-5.58;93.25
63954;BME280;50128;52.094;5.232;2023-02-28T00:35:05;101784.0;;;-5.45;92.47
63954;BME280;50128;52.094;5.232;2023-02-28T00:38:20;101778.0;;;-5.35;92.2
63954;BME280;50128;52.094;5.232;2023-02-28T00:39:56;101780.0;;;-5.25;91.77
63954;BME280;50128;52.094;5.232;2023-02-28T00:41:32;101781.0;;;-5.18;91.4
63954;BME280;50128;52.094;5.232;2023-02-28T00:44:44;101778.0;;;-5.2;91.58
63954;BME280;50128;52.094;5.232;2023-02-28T00:46:20;101781.0;;;-5.18;91.61
63954;BME280;50128;52.094;5.232;2023-02-28T00:47:56;101780.0;;;-5.1;91.22
63954;BME280;50128;52.094;5.232;2023-02-28T00:51:09;101780.0;;;-5.07;91.11
63954;BME280;50128;52.094;5.232;2023-02-28T00:52:45;101780.0;;;-5.18;91.61
63954;BME280;50128;52.094;5.232;2023-02-28T00:54:23;101776.0;;;-5.1;91.43
63954;BME280;50128;52.094;5.232;2023-02-28T00:56:00;101772.0;;;-5.03;91.2
63954;BME280;50128;52.094;5.232;2023-02-28T00:59:12;101770.0;;;-5.0;90.89
63954;BME280;50128;52.094;5.232;2023-02-28T01:00:49;101771.0;;;-4.92;90.85
63954;BME280;50128;52.094;5.232;2023-02-28T01:02:26;101776.0;;;-4.92;90.9
63954;BME280;50128;52.094;5.232;2023-02-28T01:05:38;101770.0;;;-4.93;90.99
63954;BME280;50128;52.094;5.232;2023-02-28T01:07:14;101773.0;;;-4.84;90.67
63954;BME280;50128;52.094;5.232;2023-02-28T01:08:50;101772.0;;;-4.85;90.6
63954;BME280;50128;52.094;5.232;2023-02-28T01:12:04;101775.0;;;-4.73;90.4
63954;BME280;50128;52.094;5.232;2023-02-28T01:13:40;101778.0;;;-4.63;89.83
63954;BME280;50128;52.094;5.232;2023-02-28T01:18:29;101775.0;;;-4.46;89.17
63954;BME280;50128;52.094;5.232;2023-02-28T01:20:07;101772.0;;;-4.58;89.65
63954;BME280;50128;52.094;5.232;2023-02-28T01:21:42;101774.0;;;-4.48;89.29
63954;BME280;50128;52.094;5.232;2023-02-28T01:23:19;101770.0;;;-4.6;89.8
63954;BME280;50128;52.094;5.232;2023-02-28T01:26:32;101775.0;;;-4.55;89.58
63954;BME280;50128;52.094;5.232;2023-02-28T01:28:08;101777.0;;;-4.6;89.83
63954;BME280;50128;52.094;5.232;2023-02-28T01:29:44;101773.0;;;-4.67;90.21
63954;BME280;50128;52.094;5.232;2023-02-28T01:32:59;101777.0;;;-4.65;90.5
63954;BME280;50128;52.094;5.232;2023-02-28T01:34:36;101772.0;;;-4.68;90.61
63954;BME280;50128;52.094;5.232;2023-02-28T01:36:14;101769.0;;;-4.69;90.8
63954;BME280;50128;52.094;5.232;2023-02-28T01:37:51;101765.0;;;-4.67;91.03
63954;BME280;50128;52.094;5.232;2023-02-28T01:41:04;101765.0;;;-4.7;90.91
63954;BME280;50128;52.094;5.232;2023-02-28T01:42:40;101766.0;;;-4.7;91.13
63954;BME280;50128;52.094;5.232;2023-02-28T01:45:23;101768.0;;;-4.62;90.78
63954;BME280;50128;52.094;5.232;2023-02-28T01:47:02;101763.0;;;-4.57;90.32
63954;BME280;50128;52.094;5.232;2023-02-28T01:48:41;101765.0;;;-4.59;90.41
63954;BME280;50128;52.094;5.232;2023-02-28T01:51:58;101762.0;;;-4.63;90.84
63954;BME280;50128;52.094;5.232;2023-02-28T01:53:38;101763.0;;;-4.71;91.18
63954;BME280;50128;52.094;5.232;2023-02-28T01:55:18;101758.0;;;-4.61;90.71
63954;BME280;50128;52.094;5.232;2023-02-28T01:57:00;101759.0;;;-4.55;90.63
63954;BME280;50128;52.094;5.232;2023-02-28T02:00:21;101752.0;;;-4.62;90.77
63954;BME280;50128;52.094;5.232;2023-02-28T02:01:59;101756.0;;;-4.67;91.33
63954;BME280;50128;52.094;5.232;2023-02-28T02:03:36;101751.0;;;-4.6;90.86
63954;BME280;50128;52.094;5.232;2023-02-28T02:05:16;101751.0;;;-4.56;90.99
63954;BME280;50128;52.094;5.232;2023-02-28T02:08:30;101742.0;;;-4.46;90.28
63954;BME280;50128;52.094;5.232;2023-02-28T02:10:12;101742.0;;;-4.47;90.2
63954;BME280;50128;52.094;5.232;2023-02-28T02:11:51;101736.0;;;-4.51;90.33
63954;BME280;50128;52.094;5.232;2023-02-28T02:13:38;101730.0;;;-4.4;90.04
63954;BME280;50128;52.094;5.232;2023-02-28T02:17:19;101730.0;;;-4.3;89.25
63954;BME280;50128;52.094;5.232;2023-02-28T02:19:14;101724.0;;;-4.33;89.09
63954;BME280;50128;52.094;5.232;2023-02-28T02:21:25;101723.0;;;-4.4;89.73
63954;BME280;50128;52.094;5.232;2023-02-28T02:27:22;101724.0;;;-4.3;89.25
63954;BME280;50128;52.094;5.232;2023-02-28T02:30:00;101728.0;;;-4.29;89.26
63954;BME280;50128;52.094;5.232;2023-02-28T02:33:46;101731.0;;;-4.32;89.44
63954;BME280;50128;52.094;5.232;2023-02-28T02:35:29;101734.0;;;-4.28;89.33
63954;BME280;50128;52.094;5.232;2023-02-28T02:37:14;101739.0;;;-4.23;88.67
63954;BME280;50128;52.094;5.232;2023-02-28T02:39:00;101737.0;;;-4.21;88.72
63954;BME280;50128;52.094;5.232;2023-02-28T02:40:45;101737.0;;;-4.19;88.46
63954;BME280;50128;52.094;5.232;2023-02-28T02:44:18;101741.0;;;-4.13;88.36
63954;BME280;50128;52.094;5.232;2023-02-28T02:46:01;101738.0;;;-4.3;88.81
63954;BME280;50128;52.094;5.232;2023-02-28T02:47:41;101736.0;;;-4.28;89.43
63954;BME280;50128;52.094;5.232;2023-02-28T02:49:22;101736.0;;;-4.13;88.92
63954;BME280;50128;52.094;5.232;2023-02-28T02:52:45;101736.0;;;-4.05;88.26
63954;BME280;50128;52.094;5.232;2023-02-28T02:54:33;101741.0;;;-4.15;88.84
63954;BME280;50128;52.094;5.232;2023-02-28T02:56:13;101734.0;;;-4.25;89.47
63954;BME280;50128;52.094;5.232;2023-02-28T02:57:54;101737.0;;;-4.29;90.12
63954;BME280;50128;52.094;5.232;2023-02-28T02:59:34;101740.0;;;-4.38;90.46
63954;BME280;50128;52.094;5.232;2023-02-28T03:02:56;101739.0;;;-4.38;90.69
63954;BME280;50128;52.094;5.232;2023-02-28T03:04:34;101737.0;;;-4.44;90.7
63954;BME280;50128;52.094;5.232;2023-02-28T03:06:18;101734.0;;;-4.43;90.91
63954;BME280;50128;52.094;5.232;2023-02-28T03:07:54;101741.0;;;-4.34;90.75
63954;BME280;50128;52.094;5.232;2023-02-28T03:11:12;101740.0;;;-4.32;90.88
63954;BME280;50128;52.094;5.232;2023-02-28T03:12:59;101737.0;;;-4.28;90.68
63954;BME280;50128;52.094;5.232;2023-02-28T03:14:48;101743.0;;;-4.37;91.05
63954;BME280;50128;52.094;5.232;2023-02-28T03:16:35;101742.0;;;-4.43;91.65
63954;BME280;50128;52.094;5.232;2023-02-28T03:18:23;101738.0;;;-4.35;91.56
63954;BME280;50128;52.094;5.232;2023-02-28T03:21:58;101736.0;;;-4.37;91.68
63954;BME280;50128;52.094;5.232;2023-02-28T03:23:45;101734.0;;;-4.3;91.38
63954;BME280;50128;52.094;5.232;2023-02-28T03:25:31;101736.0;;;-4.32;91.79
63954;BME280;50128;52.094;5.232;2023-02-28T03:27:17;101739.0;;;-4.29;91.76
63954;BME280;50128;52.094;5.232;2023-02-28T03:29:02;101733.0;;;-4.36;92.06
63954;BME280;50128;52.094;5.232;2023-02-28T03:32:28;101736.0;;;-4.23;91.83
63954;BME280;50128;52.094;5.232;2023-02-28T03:34:12;101739.0;;;-4.13;91.5
63954;BME280;50128;52.094;5.232;2023-02-28T03:35:56;101734.0;;;-4.27;91.92
63954;BME280;50128;52.094;5.232;2023-02-28T03:37:38;101733.0;;;-4.32;92.15
63954;BME280;50128;52.094;5.232;2023-02-28T03:39:19;101735.0;;;-4.29;92.24
63954;BME280;50128;52.094;5.232;2023-02-28T03:42:43;101737.0;;;-4.3;92.25
63954;BME280;50128;52.094;5.232;2023-02-28T03:44:25;101736.0;;;-4.33;92.67
63954;BME280;50128;52.094;5.232;2023-02-28T03:46:09;101737.0;;;-4.37;92.8
63954;BME280;50128;52.094;5.232;2023-02-28T03:47:50;101732.0;;;-4.38;93.22
63954;BME280;50128;52.094;5.232;2023-02-28T03:51:14;101739.0;;;-4.29;92.58
63954;BME280;50128;52.094;5.232;2023-02-28T03:52:57;101740.0;;;-4.25;92.52
63954;BME280;50128;52.094;5.232;2023-02-28T03:54:41;101736.0;;;-4.34;92.81
63954;BME280;50128;52.094;5.232;2023-02-28T03:56:24;101738.0;;;-4.26;92.65
63954;BME280;50128;52.094;5.232;2023-02-28T03:58:08;101741.0;;;-4.36;93.07
63954;BME280;50128;52.094;5.232;2023-02-28T04:01:38;101746.0;;;-4.29;92.81
63954;BME280;50128;52.094;5.232;2023-02-28T04:03:16;101748.0;;;-4.12;92.32
63954;BME280;50128;52.094;5.232;2023-02-28T04:04:52;101749.0;;;-4.17;92.45
63954;BME280;50128;52.094;5.232;2023-02-28T04:06:31;101750.0;;;-4.21;92.79
63954;BME280;50128;52.094;5.232;2023-02-28T04:09:44;101752.0;;;-4.21;92.83
63954;BME280;50128;52.094;5.232;2023-02-28T04:11:23;101755.0;;;-4.19;92.74
63954;BME280;50128;52.094;5.232;2023-02-28T04:13:02;101752.0;;;-4.22;92.92
63954;BME280;50128;52.094;5.232;2023-02-28T04:16:15;101751.0;;;-4.2;92.94
63954;BME280;50128;52.094;5.232;2023-02-28T04:17:52;101755.0;;;-4.21;92.4
63954;BME280;50128;52.094;5.232;2023-02-28T04:19:28;101755.0;;;-4.2;91.05
63954;BME280;50128;52.094;5.232;2023-02-28T04:21:04;101756.0;;;-4.21;90.48
63954;BME280;50128;52.094;5.232;2023-02-28T04:24:19;101758.0;;;-4.21;89.41
63954;BME280;50128;52.094;5.232;2023-02-28T04:25:56;101755.0;;;-4.21;88.66
63954;BME280;50128;52.094;5.232;2023-02-28T04:27:33;101755.0;;;-4.22;88.33
63954;BME280;50128;52.094;5.232;2023-02-28T04:30:54;101758.0;;;-4.26;87.79
63954;BME280;50128;52.094;5.232;2023-02-28T04:32:31;101761.0;;;-4.23;86.67
63954;BME280;50128;52.094;5.232;2023-02-28T04:34:07;101763.0;;;-4.15;85.94
63954;BME280;50128;52.094;5.232;2023-02-28T04:35:43;101760.0;;;-4.24;85.4
63954;BME280;50128;52.094;5.232;2023-02-28T04:38:56;101761.0;;;-4.24;84.68
63954;BME280;50128;52.094;5.232;2023-02-28T04:40:32;101765.0;;;-4.13;83.06
63954;BME280;50128;52.094;5.232;2023-02-28T04:42:09;101766.0;;;-4.15;81.34
63954;BME280;50128;52.094;5.232;2023-02-28T04:45:22;101770.0;;;-4.21;80.28
63954;BME280;50128;52.094;5.232;2023-02-28T04:46:58;101778.0;;;-4.28;79.11
63954;BME280;50128;52.094;5.232;2023-02-28T04:48:36;101780.0;;;-4.32;78.34
63954;BME280;50128;52.094;5.232;2023-02-28T04:51:50;101777.0;;;-4.31;77.58
63954;BME280;50128;52.094;5.232;2023-02-28T04:53:27;101777.0;;;-4.26;76.99
63954;BME280;50128;52.094;5.232;2023-02-28T04:55:05;101770.0;;;-4.34;77.22
63954;BME280;50128;52.094;5.232;2023-02-28T04:56:41;101772.0;;;-4.32;76.91
63954;BME280;50128;52.094;5.232;2023-02-28T04:59:54;101781.0;;;-4.32;77.22
63954;BME280;50128;52.094;5.232;2023-02-28T05:01:32;101777.0;;;-4.33;76.11
63954;BME280;50128;52.094;5.232;2023-02-28T05:03:09;101773.0;;;-4.42;75.91
63954;BME280;50128;52.094;5.232;2023-02-28T05:06:22;101778.0;;;-4.4;75.52
63954;BME280;50128;52.094;5.232;2023-02-28T05:07:59;101774.0;;;-4.41;75.47
63954;BME280;50128;52.094;5.232;2023-02-28T05:09:35;101775.0;;;-4.49;75.08
63954;BME280;50128;52.094;5.232;2023-02-28T05:12:52;101773.0;;;-4.47;74.84
63954;BME280;50128;52.094;5.232;2023-02-28T05:14:29;101770.0;;;-4.53;74.86
63954;BME280;50128;52.094;5.232;2023-02-28T05:16:05;101767.0;;;-4.54;75.2
63954;BME280;50128;52.094;5.232;2023-02-28T05:17:42;101770.0;;;-4.53;75.66
63954;BME280;50128;52.094;5.232;2023-02-28T05:20:55;101776.0;;;-4.52;74.86
63954;BME280;50128;52.094;5.232;2023-02-28T05:22:31;101773.0;;;-4.61;75.16
63954;BME280;50128;52.094;5.232;2023-02-28T05:24:10;101775.0;;;-4.56;75.44
63954;BME280;50128;52.094;5.232;2023-02-28T05:27:24;101780.0;;;-4.54;75.72
63954;BME280;50128;52.094;5.232;2023-02-28T05:29:00;101781.0;;;-4.56;76.11
63954;BME280;50128;52.094;5.232;2023-02-28T05:30:36;101783.0;;;-4.54;76.47
63954;BME280;50128;52.094;5.232;2023-02-28T05:32:12;101786.0;;;-4.68;78.19
63954;BME280;50128;52.094;5.232;2023-02-28T05:35:26;101787.0;;;-4.65;78.83
63954;BME280;50128;52.094;5.232;2023-02-28T05:37:02;101786.0;;;-4.55;79.53
63954;BME280;50128;52.094;5.232;2023-02-28T05:38:39;101787.0;;;-4.65;80.83
63954;BME280;50128;52.094;5.232;2023-02-28T05:41:52;101790.0;;;-4.78;82.6
63954;BME280;50128;52.094;5.232;2023-02-28T05:43:28;101790.0;;;-4.82;83.41
63954;BME280;50128;52.094;5.232;2023-02-28T05:45:05;101783.0;;;-4.93;85.13
63954;BME280;50128;52.094;5.232;2023-02-28T05:48:17;101782.0;;;-5.17;87.4
63954;BME280;50128;52.094;5.232;2023-02-28T05:49:53;101785.0;;;-5.1;87.77
63954;BME280;50128;52.094;5.232;2023-02-28T05:51:30;101782.0;;;-5.36;89.64
63954;BME280;50128;52.094;5.232;2023-02-28T05:53:06;101780.0;;;-5.35;90.28
63954;BME280;50128;52.094;5.232;2023-02-28T05:56:18;101780.0;;;-5.41;90.81
63954;BME280;50128;52.094;5.232;2023-02-28T05:57:54;101776.0;;;-5.51;91.61
63954;BME280;50128;52.094;5.232;2023-02-28T05:59:30;101784.0;;;-5.44;91.62
63954;BME280;50128;52.094;5.232;2023-02-28T06:03:09;101788.0;;;-5.44;91.89
63954;BME280;50128;52.094;5.232;2023-02-28T06:04:45;101780.0;;;-5.47;92.14
63954;BME280;50128;52.094;5.232;2023-02-28T06:06:22;101778.0;;;-5.6;93.04
63954;BME280;50128;52.094;5.232;2023-02-28T06:07:58;101780.0;;;-5.6;93.59
63954;BME280;50128;52.094;5.232;2023-02-28T06:11:11;101777.0;;;-5.58;93.85
63954;BME280;50128;52.094;5.232;2023-02-28T06:12:48;101787.0;;;-5.49;93.72
63954;BME280;50128;52.094;5.232;2023-02-28T06:14:25;101786.0;;;-5.64;95.0
63954;BME280;50128;52.094;5.232;2023-02-28T06:17:37;101784.0;;;-5.65;95.7
63954;BME280;50128;52.094;5.232;2023-02-28T06:19:13;101784.0;;;-5.65;96.0
63954;BME280;50128;52.094;5.232;2023-02-28T06:20:52;101782.0;;;-5.75;97.25
63954;BME280;50128;52.094;5.232;2023-02-28T06:22:28;101781.0;;;-5.76;97.91
63954;BME280;50128;52.094;5.232;2023-02-28T06:25:44;101780.0;;;-5.83;98.64
63954;BME280;50128;52.094;5.232;2023-02-28T06:27:21;101777.0;;;-5.89;99.26
63954;BME280;50128;52.094;5.232;2023-02-28T06:28:57;101780.0;;;-5.88;99.42
63954;BME280;50128;52.094;5.232;2023-02-28T06:32:09;101781.0;;;-5.9;99.69
63954;BME280;50128;52.094;5.232;2023-02-28T06:33:46;101770.0;;;-5.88;99.93
63954;BME280;50128;52.094;5.232;2023-02-28T06:35:22;101769.0;;;-5.89;100.0
63954;BME280;50128;52.094;5.232;2023-02-28T06:36:59;101776.0;;;-5.77;99.8
63954;BME280;50128;52.094;5.232;2023-02-28T06:40:14;101781.0;;;-5.71;99.54
63954;BME280;50128;52.094;5.232;2023-02-28T06:41:51;101780.0;;;-5.72;99.45
63954;BME280;50128;52.094;5.232;2023-02-28T06:43:28;101781.0;;;-5.61;99.1
63954;BME280;50128;52.094;5.232;2023-02-28T06:46:44;101780.0;;;-5.49;98.33
63954;BME280;50128;52.094;5.232;2023-02-28T06:48:20;101780.0;;;-5.65;99.29
63954;BME280;50128;52.094;5.232;2023-02-28T06:49:56;101782.0;;;-5.73;100.0
63954;BME280;50128;52.094;5.232;2023-02-28T06:53:09;101783.0;;;-5.59;100.0
63954;BME280;50128;52.094;5.232;2023-02-28T06:54:45;101785.0;;;-5.7;100.0
63954;BME280;50128;52.094;5.232;2023-02-28T06:56:21;101785.0;;;-5.71;100.0
63954;BME280;50128;52.094;5.232;2023-02-28T06:57:58;101785.0;;;-5.78;100.0
63954;BME280;50128;52.094;5.232;2023-02-28T07:01:11;101782.0;;;-5.78;100.0
63954;BME280;50128;52.094;5.232;2023-02-28T07:02:49;101780.0;;;-5.74;100.0
63954;BME280;50128;52.094;5.232;2023-02-28T07:04:25;101776.0;;;-5.78;100.0
63954;BME280;50128;52.094;5.232;2023-02-28T07:07:39;101778.0;;;-5.68;100.0
63954;BME280;50128;52.094;5.232;2023-02-28T07:09:15;101783.0;;;-5.44;100.0
63954;BME280;50128;52.094;5.232;2023-02-28T07:10:52;101780.0;;;-5.52;100.0
63954;BME280;50128;52.094;5.232;2023-02-28T07:14:05;101780.0;;;-5.36;100.0
63954;BME280;50128;52.094;5.232;2023-02-28T07:15:41;101785.0;;;-5.17;99.95
63954;BME280;50128;52.094;5.232;2023-02-28T07:17:17;101791.0;;;-5.11;99.42
63954;BME280;50128;52.094;5.232;2023-02-28T07:18:53;101793.0;;;-5.07;98.85
63954;BME280;50128;52.094;5.232;2023-02-28T07:22:07;101794.0;;;-5.15;99.65
63954;BME280;50128;52.094;5.232;2023-02-28T07:23:44;101792.0;;;-5.22;99.85
63954;BME280;50128;52.094;5.232;2023-02-28T07:25:20;101791.0;;;-5.17;100.0
63954;BME280;50128;52.094;5.232;2023-02-28T07:28:33;101788.0;;;-5.13;100.0
63954;BME280;50128;52.094;5.232;2023-02-28T07:30:10;101781.0;;;-5.15;99.98
63954;BME280;50128;52.094;5.232;2023-02-28T07:31:46;101784.0;;;-5.35;100.0
63954;BME280;50128;52.094;5.232;2023-02-28T07:34:59;101792.0;;;-5.17;100.0
63954;BME280;50128;52.094;5.232;2023-02-28T07:36:35;101796.0;;;-5.13;100.0
63954;BME280;50128;52.094;5.232;2023-02-28T07:38:11;101792.0;;;-5.19;100.0
63954;BME280;50128;52.094;5.232;2023-02-28T07:39:47;101794.0;;;-5.13;100.0
63954;BME280;50128;52.094;5.232;2023-02-28T07:43:00;101787.0;;;-5.09;100.0
63954;BME280;50128;52.094;5.232;2023-02-28T07:44:36;101788.0;;;-5.04;100.0
63954;BME280;50128;52.094;5.232;2023-02-28T07:46:15;101793.0;;;-5.14;100.0
63954;BME280;50128;52.094;5.232;2023-02-28T07:49:29;101796.0;;;-5.1;100.0
63954;BME280;50128;52.094;5.232;2023-02-28T07:51:05;101792.0;;;-5.26;100.0
63954;BME280;50128;52.094;5.232;2023-02-28T07:52:41;101801.0;;;-5.09;100.0
63954;BME280;50128;52.094;5.232;2023-02-28T07:55:55;101801.0;;;-5.11;100.0
63954;BME280;50128;52.094;5.232;2023-02-28T07:57:31;101803.0;;;-5.08;100.0
63954;BME280;50128;52.094;5.232;2023-02-28T07:59:07;101805.0;;;-5.0;100.0
63954;BME280;50128;52.094;5.232;2023-02-28T08:00:44;101796.0;;;-5.0;100.0
63954;BME280;50128;52.094;5.232;2023-02-28T08:03:56;101800.0;;;-4.97;100.0
63954;BME280;50128;52.094;5.232;2023-02-28T08:05:32;101811.0;;;-4.98;100.0
63954;BME280;50128;52.094;5.232;2023-02-28T08:07:08;101813.0;;;-5.06;100.0
63954;BME280;50128;52.094;5.232;2023-02-28T08:10:20;101795.0;;;-4.97;100.0
63954;BME280;50128;52.094;5.232;2023-02-28T08:11:57;101801.0;;;-4.95;100.0
63954;BME280;50128;52.094;5.232;2023-02-28T08:13:33;101806.0;;;-4.86;100.0
63954;BME280;50128;52.094;5.232;2023-02-28T08:16:46;101815.0;;;-4.81;100.0
63954;BME280;50128;52.094;5.232;2023-02-28T08:18:23;101815.0;;;-4.85;100.0
63954;BME280;50128;52.094;5.232;2023-02-28T08:20:00;101820.0;;;-4.9;100.0
63954;BME280;50128;52.094;5.232;2023-02-28T08:21:36;101815.0;;;-4.91;100.0
63954;BME280;50128;52.094;5.232;2023-02-28T08:24:49;101819.0;;;-4.69;100.0
63954;BME280;50128;52.094;5.232;2023-02-28T08:26:25;101821.0;;;-4.7;99.29
63954;BME280;50128;52.094;5.232;2023-02-28T08:28:02;101830.0;;;-4.67;99.32
63954;BME280;50128;52.094;5.232;2023-02-28T08:31:16;101827.0;;;-4.63;98.82
63954;BME280;50128;52.094;5.232;2023-02-28T08:32:53;101831.0;;;-4.63;98.14
63954;BME280;50128;52.094;5.232;2023-02-28T08:34:29;101830.0;;;-4.6;97.65
63954;BME280;50128;52.094;5.232;2023-02-28T08:37:43;101815.0;;;-4.63;97.35
63954;BME280;50128;52.094;5.232;2023-02-28T08:39:19;101818.0;;;-4.67;97.52
63954;BME280;50128;52.094;5.232;2023-02-28T08:40:57;101822.0;;;-4.54;96.05
63954;BME280;50128;52.094;5.232;2023-02-28T08:42:35;101820.0;;;-4.42;95.06
63954;BME280;50128;52.094;5.232;2023-02-28T08:45:51;101824.0;;;-4.43;94.99
63954;BME280;50128;52.094;5.232;2023-02-28T08:47:27;101825.0;;;-4.49;94.26
63954;BME280;50128;52.094;5.232;2023-02-28T08:49:03;101828.0;;;-4.58;94.21
63954;BME280;50128;52.094;5.232;2023-02-28T08:52:16;101823.0;;;-4.55;93.75
63954;BME280;50128;52.094;5.232;2023-02-28T08:53:53;101828.0;;;-4.54;93.33
63954;BME280;50128;52.094;5.232;2023-02-28T08:55:30;101827.0;;;-4.43;92.72
63954;BME280;50128;52.094;5.232;2023-02-28T08:58:44;101825.0;;;-4.46;91.78
63954;BME280;50128;52.094;5.232;2023-02-28T09:00:21;101816.0;;;-4.3;91.57
63954;BME280;50128;52.094;5.232;2023-02-28T09:01:57;101818.0;;;-4.34;88.6
63954;BME280;50128;52.094;5.232;2023-02-28T09:03:34;101812.0;;;-4.28;86.92
63954;BME280;50128;52.094;5.232;2023-02-28T09:06:46;101812.0;;;-4.35;85.55
63954;BME280;50128;52.094;5.232;2023-02-28T09:08:23;101816.0;;;-4.38;86.12
63954;BME280;50128;52.094;5.232;2023-02-28T09:09:59;101827.0;;;-4.44;84.27
63954;BME280;50128;52.094;5.232;2023-02-28T09:13:13;101827.0;;;-4.43;83.94
63954;BME280;50128;52.094;5.232;2023-02-28T09:14:48;101832.0;;;-4.33;82.32
63954;BME280;50128;52.094;5.232;2023-02-28T09:16:25;101836.0;;;-4.38;81.5
63954;BME280;50128;52.094;5.232;2023-02-28T09:19:37;101831.0;;;-4.38;81.36
63954;BME280;50128;52.094;5.232;2023-02-28T09:21:15;101822.0;;;-4.36;80.62
63954;BME280;50128;52.094;5.232;2023-02-28T09:22:52;101825.0;;;-4.2;80.49
63954;BME280;50128;52.094;5.232;2023-02-28T09:24:28;101821.0;;;-4.11;78.2
63954;BME280;50128;52.094;5.232;2023-02-28T09:27:42;101830.0;;;-4.0;77.58
63954;BME280;50128;52.094;5.232;2023-02-28T09:29:18;101827.0;;;-3.97;76.98
63954;BME280;50128;52.094;5.232;2023-02-28T09:30:54;101827.0;;;-3.88;74.31
63954;BME280;50128;52.094;5.232;2023-02-28T09:34:07;101822.0;;;-3.77;73.61
63954;BME280;50128;52.094;5.232;2023-02-28T09:35:44;101823.0;;;-3.68;73.66
63954;BME280;50128;52.094;5.232;2023-02-28T09:37:19;101826.0;;;-3.48;76.02
63954;BME280;50128;52.094;5.232;2023-02-28T09:40:35;101830.0;;;-3.41;70.61
63954;BME280;50128;52.094;5.232;2023-02-28T09:42:21;101827.0;;;-3.36;68.27
63954;BME280;50128;52.094;5.232;2023-02-28T09:44:07;101828.0;;;-3.3;67.91
63954;BME280;50128;52.094;5.232;2023-02-28T09:45:52;101830.0;;;-3.18;68.67
63954;BME280;50128;52.094;5.232;2023-02-28T09:47:32;101832.0;;;-3.24;65.35
63954;BME280;50128;52.094;5.232;2023-02-28T09:50:55;101832.0;;;-3.11;65.81
63954;BME280;50128;52.094;5.232;2023-02-28T09:52:37;101830.0;;;-2.75;66.87
63954;BME280;50128;52.094;5.232;2023-02-28T09:54:15;101828.0;;;-2.47;64.44
63954;BME280;50128;52.094;5.232;2023-02-28T09:55:55;101828.0;;;-2.31;61.6
63954;BME280;50128;52.094;5.232;2023-02-28T09:59:39;101832.0;;;-2.06;60.95
63954;BME280;50128;52.094;5.232;2023-02-28T10:01:23;101828.0;;;-2.08;57.45
63954;BME280;50128;52.094;5.232;2023-02-28T10:03:24;101831.0;;;-2.17;56.75
63954;BME280;50128;52.094;5.232;2023-02-28T10:05:05;101833.0;;;-2.18;52.89
63954;BME280;50128;52.094;5.232;2023-02-28T10:06:46;101835.0;;;-2.26;52.28
63954;BME280;50128;52.094;5.232;2023-02-28T10:08:26;101828.0;;;-2.25;50.3
63954;BME280;50128;52.094;5.232;2023-02-28T10:12:00;101833.0;;;-2.23;49.58
63954;BME280;50128;52.094;5.232;2023-02-28T10:13:48;101828.0;;;-2.27;47.5
63954;BME280;50128;52.094;5.232;2023-02-28T10:15:30;101831.0;;;-2.25;47.57
63954;BME280;50128;52.094;5.232;2023-02-28T10:17:11;101830.0;;;-2.34;46.6
63954;BME280;50128;52.094;5.232;2023-02-28T10:18:54;101825.0;;;-2.43;46.35
63954;BME280;50128;52.094;5.232;2023-02-28T10:22:16;101823.0;;;-2.36;46.9
63954;BME280;50128;52.094;5.232;2023-02-28T10:24:02;101823.0;;;-2.31;46.04
63954;BME280;50128;52.094;5.232;2023-02-28T10:25:57;101822.0;;;-2.35;46.66
63954;BME280;50128;52.094;5.232;2023-02-28T10:27:34;101818.0;;;-2.31;46.47
63954;BME280;50128;52.094;5.232;2023-02-28T10:29:11;101819.0;;;-2.2;46.63
63954;BME280;50128;52.094;5.232;2023-02-28T10:32:27;101820.0;;;-2.11;46.32
63954;BME280;50128;52.094;5.232;2023-02-28T10:34:07;101811.0;;;-1.98;47.07
63954;BME280;50128;52.094;5.232;2023-02-28T10:35:48;101816.0;;;-1.87;45.35
63954;BME280;50128;52.094;5.232;2023-02-28T10:39:34;101809.0;;;-1.84;45.16
63954;BME280;50128;52.094;5.232;2023-02-28T10:41:13;101808.0;;;-1.79;44.93
63954;BME280;50128;52.094;5.232;2023-02-28T10:42:55;101805.0;;;-1.78;44.88
63954;BME280;50128;52.094;5.232;2023-02-28T10:44:34;101805.0;;;-1.65;43.76
63954;BME280;50128;52.094;5.232;2023-02-28T10:46:14;101805.0;;;-1.5;43.93
63954;BME280;50128;52.094;5.232;2023-02-28T10:49:30;101805.0;;;-1.35;43.99
63954;BME280;50128;52.094;5.232;2023-02-28T10:51:08;101805.0;;;-1.23;43.36
63954;BME280;50128;52.094;5.232;2023-02-28T10:52:46;101805.0;;;-1.12;43.34
63954;BME280;50128;52.094;5.232;2023-02-28T10:54:27;101801.0;;;-0.88;45.49
63954;BME280;50128;52.094;5.232;2023-02-28T10:57:49;101798.0;;;-0.81;44.37
63954;BME280;50128;52.094;5.232;2023-02-28T10:59:28;101799.0;;;-0.8;42.0
63954;BME280;50128;52.094;5.232;2023-02-28T11:01:12;101796.0;;;-0.95;41.87
63954;BME280;50128;52.094;5.232;2023-02-28T11:02:50;101792.0;;;-0.96;42.16
63954;BME280;50128;52.094;5.232;2023-02-28T11:06:16;101788.0;;;-0.95;41.61
63954;BME280;50128;52.094;5.232;2023-02-28T11:07:55;101781.0;;;-0.83;43.09
63954;BME280;50128;52.094;5.232;2023-02-28T11:09:36;101782.0;;;-0.75;42.32
63954;BME280;50128;52.094;5.232;2023-02-28T11:11:15;101789.0;;;-0.83;40.56
63954;BME280;50128;52.094;5.232;2023-02-28T11:14:33;101789.0;;;-0.71;40.65
63954;BME280;50128;52.094;5.232;2023-02-28T11:16:32;101783.0;;;-0.8;41.16